Main page
METAR-TAF:

METAR-TAF

Airports :

Leipzig–Altenburg Airport

Altenburg, Germany

latitude: 50-58N, longitude: 012-30E, elevation: 195 m

Current weather observation

The report was made 28 minutes ago, at 05:50 UTC
Wind 12 kt from the West
Temperature 16°C
Humidity 88%
Pressure 1012 hPa
Visibility 10 km or more
Scattered clouds at a height of 1300 ft
Broken clouds at a height of 3300 ft
Overcast at a height of 5000 ft

METAR: EDAC 220550Z 26012KT 9999 SCT013 BKN033 OVC050 16/14 Q1012

Time: 08:18 (06:18 UTC)

Forecast

The report was made 1 hour and 18 minutes ago, at 05:00 UTC
Forecast valid from 22 at 06 UTC to 22 at 15 UTC
Wind 11 kt from the West
Visibility 10 km or more
Broken clouds at a height of 2500 ft
Probability 30% :
Temporary
from 22 at 10 UTC to 22 at 13 UTC
Wind 15 kt from the West with gusts up to 25 kt

TAF: EDAC 220500Z 2206/2215 26011KT 9999 BKN025 PROB30 TEMPO 2210/2213 27015G25KT

Weather observations and forecasts of more than 4000 airports (METAR and TAF reports).

The available stations are represented by yellow and red dots on the map.

Hover mouse over dot to see the name of the station.

Then click to see weather observations and forecasts.

To change the map : click on the green buttons with a black cross to zoom in, on the green button with a dash to zoom out, or on the green arrows for adjacent maps.


METAR-TAF: